This is the latest recevied weather packets stored in our database for station/object WB6ANP. If no packets are shown the sender has not sent any weather packets the latest 10 day(s).
| Time | Temp. | Humidity | Pressure | Rain* | Wind** | Luminosity | Snow |
|---|---|---|---|---|---|---|---|
| 1777765082 | 23.89° C | 35% | 1019.1 hPa | 0 mm | - | 185 W/m² | - |
| 1777764778 | 23.89° C | 37% | 1019.1 hPa | 0 mm | - | 199 W/m² | - |
| 1777764475 | 24.44° C | 37% | 1019.2 hPa | 0 mm | - | 228 W/m² | - |
| 1777764172 | 23.89° C | 38% | 1019 hPa | 0 mm | - | 240 W/m² | - |
| 1777763868 | 23.33° C | 38% | 1019.1 hPa | 0 mm | - | 264 W/m² | - |
| 1777763566 | 23.89° C | 37% | 1019 hPa | 0 mm | - | 163 W/m² | - |
| 1777763264 | 25° C | 33% | 1019.1 hPa | 0 mm | - | 86 W/m² | - |
| 1777762962 | 25° C | 34% | 1018.9 hPa | 0 mm | - | 323 W/m² | - |
| 1777762659 | 25° C | 33% | 1019.1 hPa | 0 mm | - | 347 W/m² | - |
| 1777762356 | 24.44° C | 33% | 1018.9 hPa | 0 mm | - | 357 W/m² | - |
| 1777762052 | 25° C | 34% | 1019.2 hPa | 0 mm | - | 388 W/m² | - |
| 1777761749 | 24.44° C | 36% | 1019.1 hPa | 0 mm | - | 395 W/m² | - |
| 1777761446 | 24.44° C | 34% | 1019 hPa | 0 mm | - | 420 W/m² | - |
| 1777761144 | 24.44° C | 33% | 1019.1 hPa | 0 mm | - | 442 W/m² | - |
| 1777760841 | 25° C | 34% | 1019.2 hPa | 0 mm | - | 450 W/m² | - |
| 1777760538 | 25° C | 33% | 1019.2 hPa | 0 mm | - | 472 W/m² | - |
| 1777760234 | 25° C | 34% | 1019.2 hPa | 0 mm | - | 490 W/m² | - |
| 1777759931 | 24.44° C | 35% | 1019.2 hPa | 0 mm | - | 506 W/m² | - |
| 1777759627 | 25.56° C | 32% | 1019.2 hPa | 0 mm | - | 531 W/m² | - |
| 1777759323 | 25° C | 33% | 1019.3 hPa | 0 mm | - | 550 W/m² | - |
| 1777759020 | 24.44° C | 34% | 1019.3 hPa | 0 mm | - | 576 W/m² | - |
| 1777758717 | 23.89° C | 35% | 1019.4 hPa | 0 mm | - | 297 W/m² | - |
| 1777758415 | 25° C | 35% | 1019.5 hPa | 0 mm | - | 543 W/m² | - |
| 1777758112 | 25° C | 33% | 1019.6 hPa | 0 mm | - | 619 W/m² | - |
| 1777757809 | 25.56° C | 33% | 1019.5 hPa | 0 mm | - | 631 W/m² | - |
* Rain latest hour (hover to see other rain measurements)
** Current wind speed in m/s (hover to see current wind gust speed)